createdAt,value
2018-07-07T00:01:46.301Z,5.73
2018-07-07T00:04:15.448Z,8.23
2018-07-07T00:06:44.599Z,12.50
2018-07-07T00:09:13.889Z,7.43
2018-07-07T00:11:43.625Z,5.33
2018-07-07T00:14:12.798Z,7.77
2018-07-07T00:16:42.085Z,7.90
2018-07-07T00:19:11.278Z,8.97
2018-07-07T00:21:40.480Z,10.87
2018-07-07T00:24:09.595Z,9.03
2018-07-07T00:26:38.983Z,5.50
2018-07-07T00:29:08.148Z,9.93
2018-07-07T00:31:37.339Z,8.20
2018-07-07T00:34:07.159Z,5.57
2018-07-07T00:36:36.473Z,15.87
2018-07-07T00:39:05.687Z,9.60
2018-07-07T00:41:34.868Z,11.83
2018-07-07T00:44:04.095Z,6.40
2018-07-07T00:46:32.947Z,8.67
2018-07-07T00:49:01.940Z,8.10
2018-07-07T00:51:31.236Z,8.00
2018-07-07T00:54:00.453Z,9.17
2018-07-07T00:56:29.734Z,7.93
2018-07-07T00:58:59.089Z,10.23
2018-07-07T01:01:28.338Z,8.37
2018-07-07T01:03:57.502Z,6.57
2018-07-07T01:06:29.798Z,10.17
2018-07-07T01:08:59.139Z,7.30
2018-07-07T01:11:28.547Z,11.07
2018-07-07T01:13:57.643Z,7.63
2018-07-07T01:16:27.257Z,6.53
2018-07-07T01:18:56.932Z,9.83
2018-07-07T01:21:26.142Z,13.07
2018-07-07T01:23:55.307Z,9.40
2018-07-07T01:26:24.616Z,9.27
2018-07-07T01:28:53.909Z,6.20
2018-07-07T01:31:23.249Z,6.87
2018-07-07T01:33:52.924Z,8.63
2018-07-07T01:36:22.307Z,11.50
2018-07-07T01:38:52.278Z,9.47
2018-07-07T01:41:21.496Z,8.07
2018-07-07T01:43:50.736Z,6.97
2018-07-07T01:46:19.951Z,10.53
2018-07-07T01:48:49.192Z,7.43
2018-07-07T01:51:18.479Z,10.83
2018-07-07T01:53:47.680Z,13.70
2018-07-07T01:56:16.870Z,10.20
2018-07-07T01:58:46.275Z,9.23
2018-07-07T02:01:15.040Z,7.20
2018-07-07T02:03:44.173Z,9.23
2018-07-07T02:06:13.373Z,6.53
2018-07-07T02:08:42.574Z,11.33
2018-07-07T02:11:11.747Z,9.57
2018-07-07T02:13:40.928Z,10.97
2018-07-07T02:16:10.745Z,7.80
2018-07-07T02:18:40.141Z,13.00
2018-07-07T02:21:09.439Z,6.47
2018-07-07T02:23:39.196Z,13.43
2018-07-07T02:26:08.495Z,8.00
2018-07-07T02:28:37.681Z,6.77
2018-07-07T02:31:06.938Z,12.10
2018-07-07T02:33:36.215Z,9.20
2018-07-07T02:36:05.577Z,7.70
2018-07-07T02:38:35.097Z,7.37
2018-07-07T02:41:04.408Z,6.23
2018-07-07T02:43:33.615Z,4.60
2018-07-07T02:46:02.824Z,5.43
2018-07-07T02:48:33.020Z,8.00
2018-07-07T02:51:02.315Z,5.83
2018-07-07T02:53:31.408Z,8.53
2018-07-07T02:56:00.740Z,11.70
2018-07-07T02:58:29.952Z,5.80
2018-07-07T03:00:59.194Z,6.23
2018-07-07T03:03:28.508Z,11.03
2018-07-07T03:05:57.660Z,7.70
2018-07-07T03:08:26.807Z,9.90
2018-07-07T03:10:55.723Z,8.87
2018-07-07T03:13:24.811Z,8.93
2018-07-07T03:15:54.118Z,6.17
2018-07-07T03:18:23.419Z,10.13
2018-07-07T03:20:52.669Z,8.30
2018-07-07T03:23:21.841Z,8.17
2018-07-07T03:25:51.115Z,5.03
2018-07-07T03:28:20.306Z,7.97
2018-07-07T03:30:49.617Z,7.60
2018-07-07T03:33:18.697Z,7.93
2018-07-07T03:35:47.904Z,7.97
2018-07-07T03:38:17.176Z,5.63
2018-07-07T03:40:46.362Z,10.47
2018-07-07T03:43:15.601Z,9.80
2018-07-07T03:45:44.752Z,8.57
2018-07-07T03:48:13.825Z,6.60
2018-07-07T03:50:43.441Z,7.93
2018-07-07T03:53:12.592Z,9.23
2018-07-07T03:55:41.799Z,10.27
2018-07-07T03:58:10.956Z,7.73
2018-07-07T04:00:40.153Z,11.17
2018-07-07T04:03:09.476Z,10.13
2018-07-07T04:05:38.667Z,7.13
2018-07-07T04:08:07.921Z,7.07
2018-07-07T04:10:37.311Z,7.67
2018-07-07T04:13:06.587Z,7.87
2018-07-07T04:15:35.598Z,6.20
2018-07-07T04:18:05.001Z,6.77
2018-07-07T04:20:34.279Z,8.17
2018-07-07T04:23:03.463Z,8.07
2018-07-07T04:25:32.679Z,8.47
2018-07-07T04:28:02.000Z,7.30
2018-07-07T04:30:31.195Z,7.47
2018-07-07T04:33:00.441Z,5.47
2018-07-07T04:35:29.655Z,7.27
2018-07-07T04:37:58.759Z,5.20
2018-07-07T04:40:28.009Z,7.23
2018-07-07T04:42:57.232Z,4.83
2018-07-07T04:45:26.544Z,8.80
2018-07-07T04:47:55.648Z,8.03
2018-07-07T04:50:24.861Z,7.23
2018-07-07T04:52:54.282Z,6.63
2018-07-07T04:55:23.687Z,6.30
2018-07-07T04:57:53.386Z,7.50
2018-07-07T05:00:22.823Z,5.17
2018-07-07T05:02:52.083Z,5.63
2018-07-07T05:05:21.187Z,8.93
2018-07-07T05:07:50.600Z,5.63
2018-07-07T05:10:20.077Z,7.53
2018-07-07T05:12:50.273Z,4.30
2018-07-07T05:15:19.476Z,6.23
2018-07-07T05:17:48.716Z,4.63
2018-07-07T05:20:18.353Z,7.10
2018-07-07T05:22:47.530Z,5.00
2018-07-07T05:25:16.699Z,6.43
2018-07-07T05:27:45.913Z,10.30
2018-07-07T05:30:15.059Z,7.37
2018-07-07T05:32:45.022Z,4.47
2018-07-07T05:35:14.212Z,4.97
2018-07-07T05:37:43.339Z,5.97
2018-07-07T05:40:12.485Z,8.80
2018-07-07T05:42:41.584Z,6.40
2018-07-07T05:45:10.831Z,8.63
2018-07-07T05:47:40.009Z,6.77
2018-07-07T05:50:09.224Z,7.13
2018-07-07T05:52:38.479Z,6.33
2018-07-07T05:55:07.720Z,5.47
2018-07-07T05:57:36.938Z,6.13
2018-07-07T06:00:06.650Z,5.83
2018-07-07T06:02:35.841Z,4.03
2018-07-07T06:05:05.109Z,3.57
2018-07-07T06:07:34.276Z,6.10
2018-07-07T06:10:03.788Z,6.20
2018-07-07T06:12:32.923Z,4.93
2018-07-07T06:15:02.867Z,3.83
2018-07-07T06:17:32.138Z,3.53
2018-07-07T06:20:01.259Z,3.30
2018-07-07T06:22:30.564Z,7.80
2018-07-07T06:24:59.761Z,5.43
2018-07-07T06:27:28.932Z,6.57
2018-07-07T06:29:58.321Z,6.33
2018-07-07T06:32:27.874Z,9.23
2018-07-07T06:34:57.303Z,6.53
2018-07-07T06:37:26.732Z,5.13
2018-07-07T06:39:55.971Z,3.70
2018-07-07T06:42:25.117Z,5.10
2018-07-07T06:44:54.972Z,4.63
2018-07-07T06:47:24.412Z,4.23
2018-07-07T06:49:53.668Z,6.00
2018-07-07T06:52:22.808Z,4.27
2018-07-07T06:54:52.176Z,4.53
2018-07-07T06:57:21.481Z,6.20
2018-07-07T06:59:51.314Z,6.33
2018-07-07T07:02:20.600Z,5.07
2018-07-07T07:04:49.502Z,4.37
2018-07-07T07:07:18.587Z,4.23
2018-07-07T07:09:47.497Z,4.27
2018-07-07T07:12:16.569Z,6.17
2018-07-07T07:14:46.121Z,4.93
2018-07-07T07:17:15.379Z,4.07
2018-07-07T07:19:44.629Z,5.17
2018-07-07T07:22:13.889Z,3.67
2018-07-07T07:24:43.178Z,5.23
2018-07-07T07:27:12.449Z,3.27
2018-07-07T07:29:42.417Z,3.77
2018-07-07T07:32:11.590Z,3.83
2018-07-07T07:34:40.783Z,5.70
2018-07-07T07:37:09.583Z,4.43
2018-07-07T07:39:38.872Z,3.83
2018-07-07T07:42:08.208Z,4.67
2018-07-07T07:44:37.375Z,3.43
2018-07-07T07:47:06.601Z,4.43
2018-07-07T07:49:35.731Z,5.27
2018-07-07T07:52:05.466Z,3.93
2018-07-07T07:54:34.919Z,4.70
2018-07-07T07:57:04.085Z,4.17
2018-07-07T07:59:34.141Z,4.93
2018-07-07T08:02:03.233Z,4.67
2018-07-07T08:04:32.524Z,4.30
2018-07-07T08:07:01.708Z,5.50
2018-07-07T08:09:30.896Z,4.50
2018-07-07T08:12:00.086Z,5.13
2018-07-07T08:14:29.344Z,4.37
2018-07-07T08:16:58.602Z,4.13
2018-07-07T08:19:28.513Z,5.33
2018-07-07T08:21:57.724Z,2.60
2018-07-07T08:24:26.708Z,3.70
2018-07-07T08:26:55.768Z,4.57
2018-07-07T08:29:25.030Z,4.13
2018-07-07T08:31:54.197Z,4.43
2018-07-07T08:34:23.380Z,3.17
2018-07-07T08:36:52.569Z,5.67
2018-07-07T08:39:21.825Z,2.97
2018-07-07T08:41:51.116Z,4.43
2018-07-07T08:44:20.328Z,4.78
2018-07-07T08:46:49.644Z,5.00
2018-07-07T08:49:19.666Z,3.50
2018-07-07T08:51:48.756Z,4.00
2018-07-07T08:54:17.906Z,4.97
2018-07-07T08:56:47.052Z,5.00
2018-07-07T08:59:16.196Z,3.37
2018-07-07T09:01:45.531Z,4.83
2018-07-07T09:04:14.812Z,5.57
2018-07-07T09:06:44.019Z,4.63
2018-07-07T09:09:13.193Z,4.33
2018-07-07T09:11:42.044Z,2.65
2018-07-07T09:14:11.175Z,3.03
2018-07-07T09:16:40.429Z,4.60
2018-07-07T09:19:09.677Z,2.90
2018-07-07T09:21:38.969Z,3.97
2018-07-07T09:24:08.183Z,2.30
2018-07-07T09:26:37.494Z,3.20
2018-07-07T09:29:06.728Z,3.80
2018-07-07T09:31:35.843Z,2.73
2018-07-07T09:34:05.089Z,6.00
2018-07-07T09:36:34.690Z,4.15
2018-07-07T09:39:05.020Z,2.83
2018-07-07T09:41:34.367Z,6.57
2018-07-07T09:44:03.571Z,3.07
2018-07-07T09:46:32.807Z,7.20
2018-07-07T09:49:02.025Z,2.77
2018-07-07T09:51:31.214Z,2.80
2018-07-07T09:54:00.423Z,5.75
2018-07-07T09:56:30.246Z,5.80
2018-07-07T09:58:59.360Z,4.47
2018-07-07T10:01:28.629Z,4.67
2018-07-07T10:03:57.931Z,5.10
2018-07-07T10:06:27.205Z,4.90
2018-07-07T10:08:56.301Z,2.83
2018-07-07T10:11:25.393Z,2.60
2018-07-07T10:13:54.608Z,3.40
2018-07-07T10:16:23.892Z,4.23
2018-07-07T10:18:53.171Z,3.20
2018-07-07T10:21:22.377Z,2.87
2018-07-07T10:23:51.664Z,3.27
2018-07-07T10:26:20.797Z,4.73
2018-07-07T10:28:50.017Z,6.03
2018-07-07T10:31:19.233Z,3.40
2018-07-07T10:33:48.417Z,1.60
2018-07-07T10:36:17.556Z,4.23
2018-07-07T10:38:47.466Z,1.90
2018-07-07T10:41:16.749Z,2.92
2018-07-07T10:43:45.953Z,2.95
2018-07-07T10:46:15.242Z,6.53
2018-07-07T10:48:44.340Z,2.27
2018-07-07T10:51:13.529Z,2.20
2018-07-07T10:53:42.313Z,3.90
2018-07-07T10:56:11.007Z,3.27
2018-07-07T10:58:40.317Z,2.70
2018-07-07T11:01:09.192Z,3.60
2018-07-07T11:03:38.015Z,5.07
2018-07-07T11:06:07.732Z,2.50
2018-07-07T11:08:36.973Z,2.58
2018-07-07T11:11:06.144Z,3.35
2018-07-07T11:13:35.400Z,3.50
2018-07-07T11:16:04.640Z,3.50
2018-07-07T11:18:33.738Z,2.13
2018-07-07T11:21:03.049Z,4.17
2018-07-07T11:23:32.309Z,3.37
2018-07-07T11:26:01.509Z,3.23
2018-07-07T11:28:30.641Z,3.27
2018-07-07T11:30:59.828Z,3.87
2018-07-07T11:33:29.703Z,2.90
2018-07-07T11:35:58.526Z,3.00
2018-07-07T11:38:27.732Z,2.97
2018-07-07T11:40:57.001Z,3.33
2018-07-07T11:43:27.030Z,3.90
2018-07-07T11:45:56.204Z,3.92
2018-07-07T11:48:25.455Z,3.47
2018-07-07T11:50:54.701Z,2.33
2018-07-07T11:53:23.856Z,2.77
2018-07-07T11:55:53.045Z,1.73
2018-07-07T11:58:22.217Z,2.80
2018-07-07T12:00:51.620Z,1.98
2018-07-07T12:03:20.692Z,2.55
2018-07-07T12:05:49.667Z,4.55
2018-07-07T12:08:18.894Z,3.08
2018-07-07T12:10:48.060Z,2.92
2018-07-07T12:13:17.264Z,2.75
2018-07-07T12:15:46.875Z,7.03
2018-07-07T12:18:16.050Z,3.85
2018-07-07T12:20:45.385Z,3.35
2018-07-07T12:23:14.607Z,3.20
2018-07-07T12:25:43.828Z,4.33
2018-07-07T12:28:12.934Z,4.53
2018-07-07T12:30:42.232Z,6.27
2018-07-07T12:33:14.457Z,4.77
2018-07-07T12:35:43.645Z,3.67
2018-07-07T12:38:12.886Z,4.28
2018-07-07T12:40:42.180Z,3.57
2018-07-07T12:43:11.474Z,3.27
2018-07-07T12:45:40.833Z,2.30
2018-07-07T12:48:10.065Z,4.57
2018-07-07T12:50:38.848Z,4.60
2018-07-07T12:53:08.000Z,2.53
2018-07-07T12:55:37.304Z,3.23
2018-07-07T12:58:06.698Z,3.37
2018-07-07T13:00:36.081Z,3.37
2018-07-07T13:03:06.267Z,3.27
2018-07-07T13:05:35.545Z,5.70
2018-07-07T13:08:04.826Z,7.07
2018-07-07T13:10:34.005Z,2.10
2018-07-07T13:13:03.286Z,4.80
2018-07-07T13:15:32.524Z,3.37
2018-07-07T13:18:01.627Z,2.63
2018-07-07T13:20:30.823Z,1.67
2018-07-07T13:23:00.823Z,2.87
2018-07-07T13:25:29.946Z,4.23
2018-07-07T13:27:59.160Z,3.23
2018-07-07T13:30:28.636Z,3.23
2018-07-07T13:32:57.896Z,3.43
2018-07-07T13:35:27.418Z,2.00
2018-07-07T13:37:56.704Z,3.30
2018-07-07T13:40:25.932Z,2.80
2018-07-07T13:42:55.118Z,6.57
2018-07-07T13:45:24.326Z,6.00
2018-07-07T13:47:54.031Z,3.47
2018-07-07T13:50:23.379Z,4.50
2018-07-07T13:52:52.602Z,3.30
2018-07-07T13:55:21.723Z,3.63
2018-07-07T13:57:50.834Z,5.23
2018-07-07T14:00:19.952Z,3.53
2018-07-07T14:02:49.076Z,4.63
2018-07-07T14:05:18.223Z,2.27
2018-07-07T14:07:47.370Z,2.30
2018-07-07T14:10:16.923Z,3.43
2018-07-07T14:12:46.044Z,1.57
2018-07-07T14:15:15.176Z,4.00
2018-07-07T14:17:44.324Z,4.40
2018-07-07T14:20:13.487Z,5.20
2018-07-07T14:22:42.714Z,2.63
2018-07-07T14:25:11.951Z,3.33
2018-07-07T14:27:41.051Z,3.87
2018-07-07T14:30:10.208Z,3.67
2018-07-07T14:32:39.537Z,3.53
2018-07-07T14:35:09.433Z,3.23
2018-07-07T14:37:39.642Z,2.57
2018-07-07T14:40:09.044Z,7.47
2018-07-07T14:42:45.584Z,6.70
2018-07-07T14:45:27.451Z,1.17
2018-07-07T14:47:58.028Z,4.30
2018-07-07T14:50:27.744Z,3.70
2018-07-07T14:52:56.860Z,3.33
2018-07-07T14:55:27.615Z,4.33
2018-07-07T14:57:57.772Z,3.60
2018-07-07T15:00:28.136Z,4.87
2018-07-07T15:02:57.953Z,6.30
2018-07-07T15:05:27.315Z,3.53
2018-07-07T15:07:56.727Z,2.60
2018-07-07T15:10:26.062Z,6.03
2018-07-07T15:12:55.203Z,4.70
2018-07-07T15:15:24.518Z,3.03
2018-07-07T15:17:54.404Z,2.27
2018-07-07T15:20:23.901Z,2.53
2018-07-07T15:22:53.004Z,2.90
2018-07-07T15:25:22.159Z,4.30
2018-07-07T15:27:51.472Z,3.33
2018-07-07T15:30:20.656Z,2.17
2018-07-07T15:32:49.779Z,4.73
2018-07-07T15:35:18.857Z,3.77
2018-07-07T15:37:48.053Z,3.50
2018-07-07T15:40:17.484Z,3.90
2018-07-07T15:42:46.658Z,5.73
2018-07-07T15:45:16.004Z,2.87
2018-07-07T15:47:45.330Z,4.17
2018-07-07T15:50:14.662Z,4.13
2018-07-07T15:52:43.853Z,2.43
2018-07-07T15:55:13.063Z,3.23
2018-07-07T15:57:42.866Z,3.63
2018-07-07T16:00:13.178Z,3.50
2018-07-07T16:02:42.499Z,4.17
2018-07-07T16:05:11.660Z,3.80
2018-07-07T16:07:40.824Z,4.80
2018-07-07T16:10:09.947Z,4.33
2018-07-07T16:12:39.254Z,5.40
2018-07-07T16:15:08.386Z,2.23
2018-07-07T16:17:37.575Z,5.87
2018-07-07T16:20:06.786Z,4.53
2018-07-07T16:22:35.681Z,3.13
2018-07-07T16:25:04.971Z,4.23
2018-07-07T16:27:34.347Z,4.37
2018-07-07T16:30:03.580Z,2.93
2018-07-07T16:32:32.907Z,2.13
2018-07-07T16:35:02.035Z,3.13
2018-07-07T16:37:31.456Z,5.87
2018-07-07T16:40:00.540Z,4.63
2018-07-07T16:42:29.903Z,4.03
2018-07-07T16:44:59.675Z,4.33
2018-07-07T16:47:28.884Z,2.53
2018-07-07T16:49:58.219Z,4.37
2018-07-07T16:52:27.589Z,3.07
2018-07-07T16:54:56.918Z,3.47
2018-07-07T16:57:26.214Z,2.77
2018-07-07T16:59:55.645Z,3.03
2018-07-07T17:02:24.878Z,2.13
2018-07-07T17:04:54.063Z,4.20
2018-07-07T17:07:24.152Z,6.13
2018-07-07T17:09:53.584Z,4.30
2018-07-07T17:12:23.480Z,3.07
2018-07-07T17:14:52.649Z,5.43
2018-07-07T17:17:22.930Z,3.77
2018-07-07T17:19:52.246Z,7.37
2018-07-07T17:22:21.507Z,4.10
2018-07-07T17:24:50.810Z,3.63
2018-07-07T17:27:20.194Z,2.87
2018-07-07T17:29:49.498Z,4.17
2018-07-07T17:32:18.774Z,3.37
2018-07-07T17:34:48.242Z,5.33
2018-07-07T17:37:17.468Z,4.97
2018-07-07T17:39:46.394Z,4.07
2018-07-07T17:42:15.583Z,5.40
2018-07-07T17:44:45.210Z,2.97
2018-07-07T17:47:14.529Z,5.43
2018-07-07T17:49:43.898Z,5.07
2018-07-07T17:52:13.208Z,6.10
2018-07-07T17:54:42.409Z,5.30
2018-07-07T17:57:12.473Z,4.60
2018-07-07T17:59:41.660Z,6.30
2018-07-07T18:02:10.873Z,7.33
2018-07-07T18:04:40.076Z,5.97
2018-07-07T18:07:09.449Z,4.20
2018-07-07T18:09:39.519Z,5.43
2018-07-07T18:12:08.689Z,5.07
2018-07-07T18:14:37.908Z,3.70
2018-07-07T18:17:07.065Z,3.30
2018-07-07T18:19:36.306Z,3.60
2018-07-07T18:22:05.395Z,5.40
2018-07-07T18:24:34.503Z,6.70
2018-07-07T18:27:03.744Z,4.30
2018-07-07T18:29:32.987Z,5.00
2018-07-07T18:32:01.893Z,5.17
2018-07-07T18:34:31.107Z,5.73
2018-07-07T18:37:00.553Z,6.10
2018-07-07T18:39:29.913Z,5.03
2018-07-07T18:41:59.072Z,4.50
2018-07-07T18:44:28.378Z,3.70
2018-07-07T18:46:58.438Z,6.23
2018-07-07T18:49:27.887Z,6.07
2018-07-07T18:51:57.220Z,6.07
2018-07-07T18:54:27.069Z,4.73
2018-07-07T18:56:56.405Z,5.23
2018-07-07T18:59:25.790Z,6.27
2018-07-07T19:01:55.216Z,9.07
2018-07-07T19:04:24.324Z,5.87
2018-07-07T19:06:53.510Z,4.33
2018-07-07T19:09:22.746Z,4.87
2018-07-07T19:11:51.916Z,5.37
2018-07-07T19:14:21.306Z,4.40
2018-07-07T19:16:50.458Z,6.87
2018-07-07T19:19:19.693Z,6.00
2018-07-07T19:21:54.041Z,5.30
2018-07-07T19:24:28.490Z,5.73
2018-07-07T19:26:57.703Z,5.87
2018-07-07T19:29:26.900Z,5.53
2018-07-07T19:32:01.359Z,14.57
2018-07-07T19:34:35.865Z,4.00
2018-07-07T19:37:10.460Z,9.20
2018-07-07T19:39:39.756Z,8.30
2018-07-07T19:42:08.910Z,4.23
2018-07-07T19:44:38.160Z,4.47
2018-07-07T19:47:07.625Z,6.70
2018-07-07T19:49:38.075Z,7.63
2018-07-07T19:52:07.780Z,9.33
2018-07-07T19:54:36.581Z,4.53
2018-07-07T19:57:05.609Z,8.70
2018-07-07T19:59:34.834Z,7.03
2018-07-07T20:02:04.044Z,5.83
2018-07-07T20:04:33.274Z,5.67
2018-07-07T20:07:02.423Z,6.07
2018-07-07T20:09:31.937Z,6.03
2018-07-07T20:12:01.138Z,5.77
2018-07-07T20:14:30.434Z,10.07
2018-07-07T20:17:13.202Z,6.03
2018-07-07T20:20:59.070Z,9.30
2018-07-07T20:23:29.527Z,5.03
2018-07-07T20:26:03.062Z,6.93
2018-07-07T20:28:37.662Z,5.57
2018-07-07T20:31:06.824Z,5.77
2018-07-07T20:33:36.136Z,8.27
2018-07-07T20:36:05.487Z,5.07
2018-07-07T20:38:35.660Z,11.80
2018-07-07T20:41:05.079Z,5.37
2018-07-07T20:43:34.428Z,5.33
2018-07-07T20:46:03.882Z,5.67
2018-07-07T20:48:33.178Z,5.60
2018-07-07T20:51:02.466Z,6.70
2018-07-07T20:53:31.706Z,7.60
2018-07-07T20:56:01.098Z,6.90
2018-07-07T20:58:31.078Z,7.43
2018-07-07T21:01:00.316Z,7.00
2018-07-07T21:03:29.602Z,5.40
2018-07-07T21:05:58.866Z,6.17
2018-07-07T21:08:28.148Z,4.77
2018-07-07T21:10:57.405Z,9.03
2018-07-07T21:13:26.582Z,11.07
2018-07-07T21:15:55.852Z,7.07
2018-07-07T21:18:25.109Z,6.70
2018-07-07T21:20:54.281Z,7.33
2018-07-07T21:23:23.523Z,7.73
2018-07-07T21:25:52.838Z,4.87
2018-07-07T21:28:22.037Z,5.20
2018-07-07T21:30:51.349Z,6.37
2018-07-07T21:33:20.611Z,7.40
2018-07-07T21:35:49.769Z,8.10
2018-07-07T21:38:19.141Z,9.20
2018-07-07T21:40:48.403Z,11.30
2018-07-07T21:43:17.547Z,9.20
2018-07-07T21:45:46.775Z,10.60
2018-07-07T21:48:15.991Z,6.10
2018-07-07T21:50:45.270Z,8.37
2018-07-07T21:53:14.726Z,9.00
2018-07-07T21:55:44.141Z,8.63
2018-07-07T21:58:18.565Z,6.27
2018-07-07T22:01:04.396Z,8.73
2018-07-07T22:03:39.181Z,8.83
2018-07-07T22:06:09.404Z,10.30
2018-07-07T22:08:39.297Z,9.47
2018-07-07T22:11:08.594Z,7.73
2018-07-07T22:13:37.761Z,8.17
2018-07-07T22:16:07.607Z,10.40
2018-07-07T22:18:36.989Z,7.10
2018-07-07T22:21:17.435Z,6.63
2018-07-07T22:23:46.738Z,8.73
2018-07-07T22:26:15.950Z,8.83
2018-07-07T22:28:44.857Z,10.73
2018-07-07T22:31:13.989Z,9.57
2018-07-07T22:33:43.279Z,12.53
2018-07-07T22:36:33.079Z,11.63
2018-07-07T22:39:02.535Z,9.03
2018-07-07T22:41:42.998Z,8.67
2018-07-07T22:44:12.396Z,10.53
2018-07-07T22:46:41.601Z,8.00
2018-07-07T22:49:11.222Z,8.90
2018-07-07T22:51:40.316Z,14.20
2018-07-07T22:54:09.479Z,10.33
2018-07-07T22:56:39.186Z,11.30
2018-07-07T22:59:08.380Z,9.33
2018-07-07T23:01:38.014Z,9.10
2018-07-07T23:04:07.223Z,10.20
2018-07-07T23:06:38.258Z,9.30
2018-07-07T23:09:09.543Z,8.93
2018-07-07T23:11:38.925Z,7.67
2018-07-07T23:14:08.236Z,9.30
2018-07-07T23:16:38.155Z,9.90
2018-07-07T23:19:07.726Z,9.67
2018-07-07T23:21:36.890Z,12.60
2018-07-07T23:24:06.135Z,15.37
2018-07-07T23:26:35.316Z,7.93
2018-07-07T23:29:04.911Z,12.40
2018-07-07T23:31:34.095Z,9.07
2018-07-07T23:34:03.622Z,12.73
2018-07-07T23:36:32.825Z,10.07
2018-07-07T23:39:02.048Z,9.20
2018-07-07T23:41:31.248Z,9.00
2018-07-07T23:44:00.491Z,11.70
2018-07-07T23:46:29.814Z,7.83
2018-07-07T23:48:59.002Z,9.77
2018-07-07T23:51:28.149Z,8.77
2018-07-07T23:53:57.359Z,7.50
2018-07-07T23:56:26.664Z,10.50
2018-07-07T23:58:55.928Z,9.10
